createdAt,value
2018-07-01T00:02:06.226Z,47.31
2018-07-01T00:04:36.110Z,47.27
2018-07-01T00:07:06.036Z,47.34
2018-07-01T00:09:37.531Z,47.16
2018-07-01T00:12:07.496Z,47.23
2018-07-01T00:14:39.615Z,47.76
2018-07-01T00:17:10.082Z,48.31
2018-07-01T00:19:42.664Z,48.62
2018-07-01T00:22:17.950Z,48.51
2018-07-01T00:24:51.333Z,49.04
2018-07-01T00:27:20.248Z,49.02
2018-07-01T00:29:48.994Z,48.65
2018-07-01T00:32:17.901Z,48.61
2018-07-01T00:34:51.630Z,49.21
2018-07-01T00:37:22.830Z,49.28
2018-07-01T00:39:53.818Z,49.65
2018-07-01T00:42:24.358Z,49.72
2018-07-01T00:44:54.212Z,49.13
2018-07-01T00:47:26.788Z,49.62
2018-07-01T00:49:59.575Z,49.08
2018-07-01T00:52:30.474Z,48.87
2018-07-01T00:57:38.569Z,49.48
2018-07-01T01:02:44.367Z,48.95
2018-07-01T01:05:14.172Z,48.77
2018-07-01T01:07:44.933Z,49.11
2018-07-01T01:10:13.866Z,48.87
2018-07-01T01:12:42.671Z,48.58
2018-07-01T01:15:11.438Z,49.23
2018-07-01T01:17:40.460Z,48.68
2018-07-01T01:20:10.543Z,49.33
2018-07-01T01:22:40.792Z,49.09
2018-07-01T01:25:14.155Z,50.06
2018-07-01T01:27:44.328Z,49.84
2018-07-01T01:30:15.534Z,50.08
2018-07-01T01:32:44.418Z,49.98
2018-07-01T01:35:13.222Z,50.30
2018-07-01T01:37:42.250Z,50.85
2018-07-01T01:40:12.593Z,51.00
2018-07-01T01:42:48.831Z,50.52
2018-07-01T01:45:27.880Z,50.60
2018-07-01T01:48:03.758Z,51.31
2018-07-01T01:50:42.027Z,51.19
2018-07-01T01:54:17.215Z,50.76
2018-07-01T01:56:55.475Z,50.82
2018-07-01T01:59:34.018Z,51.47
2018-07-01T02:02:10.008Z,51.56
2018-07-01T02:04:46.422Z,51.50
2018-07-01T02:07:30.455Z,51.13
2018-07-01T02:10:00.181Z,51.67
2018-07-01T02:12:29.058Z,51.68
2018-07-01T02:15:02.026Z,51.27
2018-07-01T02:17:35.552Z,51.91
2018-07-01T02:20:06.079Z,51.44
2018-07-01T02:22:43.466Z,52.01
2018-07-01T02:25:18.851Z,51.53
2018-07-01T02:27:52.552Z,51.96
2018-07-01T02:30:23.381Z,51.65
2018-07-01T02:32:52.851Z,51.99
2018-07-01T02:35:21.667Z,51.51
2018-07-01T02:37:50.487Z,51.81
2018-07-01T02:40:19.756Z,51.28
2018-07-01T02:42:50.073Z,51.45
2018-07-01T02:45:21.045Z,50.85
2018-07-01T02:47:52.081Z,50.34
2018-07-01T02:50:22.499Z,50.41
2018-07-01T02:52:52.415Z,50.38
2018-07-01T02:55:24.137Z,50.06
2018-07-01T02:57:52.922Z,49.93
2018-07-01T03:00:21.702Z,49.75
2018-07-01T03:02:50.638Z,49.09
2018-07-01T03:05:20.528Z,49.00
2018-07-01T03:07:50.123Z,48.75
2018-07-01T03:10:20.442Z,48.53
2018-07-01T03:12:50.091Z,48.25
2018-07-01T03:15:22.173Z,48.45
2018-07-01T03:17:52.123Z,48.00
2018-07-01T03:20:22.097Z,47.48
2018-07-01T03:22:50.827Z,47.27
2018-07-01T03:25:19.610Z,47.69
2018-07-01T03:27:48.333Z,47.03
2018-07-01T03:30:17.310Z,46.91
2018-07-01T03:32:47.015Z,46.94
2018-07-01T03:35:20.522Z,46.86
2018-07-01T03:37:50.475Z,47.32
2018-07-01T03:40:20.346Z,47.24
2018-07-01T03:42:51.178Z,47.25
2018-07-01T03:45:22.015Z,47.23
2018-07-01T03:47:52.202Z,46.70
2018-07-01T03:50:22.158Z,47.33
2018-07-01T03:52:55.747Z,46.79
2018-07-01T03:55:26.178Z,47.39
2018-07-01T03:57:54.995Z,47.40
2018-07-01T04:00:23.815Z,47.29
2018-07-01T04:02:52.674Z,47.15
2018-07-01T04:05:22.124Z,47.00
2018-07-01T04:07:52.757Z,46.96
2018-07-01T04:10:22.176Z,47.00
2018-07-01T04:12:52.126Z,47.21
2018-07-01T04:15:22.140Z,47.69
2018-07-01T04:17:50.905Z,47.68
2018-07-01T04:20:19.664Z,47.49
2018-07-01T04:22:48.390Z,47.97
2018-07-01T04:25:17.299Z,48.15
2018-07-01T04:27:47.413Z,47.75
2018-07-01T04:30:18.249Z,48.20
2018-07-01T04:32:48.202Z,48.31
2018-07-01T04:35:18.127Z,48.23
2018-07-01T04:37:51.582Z,47.77
2018-07-01T04:40:20.932Z,47.92
2018-07-01T04:42:49.865Z,47.89
2018-07-01T04:45:18.662Z,48.62
2018-07-01T04:47:47.448Z,48.28
2018-07-01T04:50:17.189Z,48.07
2018-07-01T04:52:47.481Z,48.43
2018-07-01T04:55:18.179Z,48.52
2018-07-01T04:57:48.137Z,48.91
2018-07-01T05:00:17.107Z,48.48
2018-07-01T05:02:45.917Z,48.96
2018-07-01T05:05:14.802Z,48.67
2018-07-01T05:07:45.843Z,48.89
2018-07-01T05:10:16.341Z,48.91
2018-07-01T05:12:46.290Z,48.83
2018-07-01T05:15:16.544Z,48.13
2018-07-01T05:17:46.144Z,48.29
2018-07-01T05:20:15.038Z,48.59
2018-07-01T05:22:43.993Z,49.10
2018-07-01T05:25:12.822Z,48.74
2018-07-01T05:27:42.428Z,48.85
2018-07-01T05:30:12.367Z,49.63
2018-07-01T05:32:42.607Z,49.51
2018-07-01T05:35:13.034Z,49.44
2018-07-01T05:37:43.422Z,49.18
2018-07-01T05:40:12.191Z,49.11
2018-07-01T05:42:41.323Z,49.51
2018-07-01T05:45:10.246Z,49.26
2018-07-01T05:47:40.250Z,49.56
2018-07-01T05:50:10.095Z,49.41
2018-07-01T05:52:40.111Z,49.34
2018-07-01T05:55:10.483Z,49.69
2018-07-01T05:57:41.790Z,49.49
2018-07-01T06:00:10.734Z,48.85
2018-07-01T06:02:39.498Z,49.18
2018-07-01T06:05:08.423Z,48.97
2018-07-01T06:07:37.633Z,48.50
2018-07-01T06:10:08.152Z,48.29
2018-07-01T06:12:38.634Z,48.95
2018-07-01T06:15:08.254Z,48.73
2018-07-01T06:17:38.160Z,48.63
2018-07-01T06:20:09.078Z,48.29
2018-07-01T06:22:37.859Z,48.31
2018-07-01T06:25:06.722Z,47.90
2018-07-01T06:27:35.748Z,48.51
2018-07-01T06:30:06.203Z,48.19
2018-07-01T06:32:36.298Z,48.34
2018-07-01T06:35:10.271Z,48.23
2018-07-01T06:37:40.336Z,47.48
2018-07-01T06:40:11.514Z,47.93
2018-07-01T06:42:40.371Z,47.82
2018-07-01T06:45:09.226Z,47.11
2018-07-01T06:47:38.127Z,47.19
2018-07-01T06:50:07.353Z,47.48
2018-07-01T06:52:38.832Z,46.88
2018-07-01T06:55:10.260Z,47.38
2018-07-01T06:57:40.316Z,47.08
2018-07-01T07:00:10.540Z,46.69
2018-07-01T07:02:42.301Z,46.55
2018-07-01T07:05:11.631Z,47.18
2018-07-01T07:07:43.725Z,46.44
2018-07-01T07:10:12.718Z,46.86
2018-07-01T07:12:41.746Z,47.28
2018-07-01T07:15:10.569Z,47.25
2018-07-01T07:17:39.693Z,47.01
2018-07-01T07:20:10.759Z,46.89
2018-07-01T07:22:41.035Z,46.77
2018-07-01T07:25:12.103Z,46.04
2018-07-01T07:27:42.190Z,46.12
2018-07-01T07:30:12.326Z,46.59
2018-07-01T07:32:42.731Z,45.76
2018-07-01T07:35:11.553Z,46.28
2018-07-01T07:37:40.843Z,46.54
2018-07-01T07:40:09.870Z,45.58
2018-07-01T07:42:43.013Z,45.45
2018-07-01T07:45:16.279Z,46.12
2018-07-01T07:47:51.692Z,46.01
2018-07-01T07:50:23.095Z,45.17
2018-07-01T07:52:54.855Z,45.84
2018-07-01T07:55:24.936Z,45.86
2018-07-01T07:57:54.795Z,45.29
2018-07-01T08:00:23.517Z,45.04
2018-07-01T08:02:53.134Z,45.53
2018-07-01T08:05:23.163Z,44.73
2018-07-01T08:07:52.504Z,44.75
2018-07-01T08:10:22.223Z,44.62
2018-07-01T08:12:51.181Z,44.93
2018-07-01T08:15:19.888Z,45.34
2018-07-01T08:17:48.810Z,45.49
2018-07-01T08:20:17.997Z,45.54
2018-07-01T08:22:47.295Z,44.78
2018-07-01T08:25:17.002Z,45.16
2018-07-01T08:27:48.248Z,45.73
2018-07-01T08:30:17.488Z,45.79
2018-07-01T08:32:46.820Z,46.57
2018-07-01T08:35:16.711Z,46.78
2018-07-01T08:37:47.520Z,46.51
2018-07-01T08:40:16.529Z,46.50
2018-07-01T08:42:45.216Z,46.73
2018-07-01T08:45:14.135Z,46.87
2018-07-01T08:47:45.647Z,46.92
2018-07-01T09:02:25.750Z,47.47
2018-07-01T09:04:54.572Z,47.72
2018-07-01T09:07:23.607Z,48.20
2018-07-01T09:13:03.702Z,49.55
2018-07-01T09:18:39.484Z,50.35
2018-07-01T09:21:09.521Z,51.96
2018-07-01T09:23:38.485Z,52.89
2018-07-01T09:26:07.388Z,53.54
2018-07-01T09:28:36.391Z,54.17
2018-07-01T09:31:05.560Z,54.64
2018-07-01T10:01:01.529Z,61.81
2018-07-01T10:03:30.492Z,62.58
2018-07-01T10:05:59.689Z,63.18
2018-07-01T10:57:05.231Z,71.06
2018-07-01T10:59:34.122Z,71.79
2018-07-01T11:02:03.117Z,71.94
2018-07-01T11:34:40.632Z,74.19
2018-07-01T11:37:09.847Z,73.71
2018-07-01T11:39:39.080Z,73.83
2018-07-01T11:42:24.178Z,73.79
2018-07-01T11:44:55.666Z,73.96
2018-07-01T11:47:30.191Z,74.20
2018-07-01T11:53:02.391Z,74.95
2018-07-01T11:55:31.298Z,74.58
2018-07-01T11:58:00.169Z,75.25
2018-07-01T12:00:29.323Z,75.39
2018-07-01T12:21:15.579Z,76.04
2018-07-01T12:23:44.546Z,76.13
2018-07-01T12:26:13.542Z,76.14
2018-07-01T12:41:10.810Z,76.79
2018-07-01T12:43:40.530Z,76.96
2018-07-01T12:46:09.486Z,76.90
2018-07-01T12:48:38.343Z,77.17
2018-07-01T13:00:27.225Z,77.41
2018-07-01T13:02:56.114Z,77.85
2018-07-01T13:05:25.194Z,77.91
2018-07-01T13:07:54.987Z,77.39
2018-07-01T13:22:34.558Z,77.41
2018-07-01T13:25:03.525Z,77.57
2018-07-01T13:27:32.514Z,77.79
2018-07-01T13:30:02.866Z,77.09
2018-07-01T13:46:18.355Z,74.86
2018-07-01T13:48:47.403Z,74.28
2018-07-01T13:51:16.141Z,73.91
2018-07-01T13:56:47.158Z,72.82
2018-07-01T13:59:22.229Z,73.07
2018-07-01T14:01:54.540Z,72.36
2018-07-01T14:04:30.726Z,71.68
2018-07-01T14:06:59.503Z,71.10
2018-07-01T14:09:28.347Z,70.89
2018-07-01T14:11:57.255Z,70.81
2018-07-01T14:14:28.251Z,70.73
2018-07-01T14:17:06.791Z,71.04
2018-07-01T14:19:42.246Z,71.04
2018-07-01T14:22:15.751Z,70.68
2018-07-01T14:27:34.621Z,70.37
2018-07-01T14:30:14.330Z,71.00
2018-07-01T14:32:50.451Z,70.71
2018-07-01T14:35:28.224Z,70.31
2018-07-01T14:38:08.199Z,70.13
2018-07-01T14:40:37.045Z,70.06
2018-07-01T14:43:05.903Z,69.71
2018-07-01T14:45:34.752Z,69.82
2018-07-01T14:48:05.083Z,69.63
2018-07-01T14:50:39.302Z,68.94
2018-07-01T14:53:18.461Z,68.44
2018-07-01T14:55:58.488Z,68.42
2018-07-01T14:58:35.360Z,68.07
2018-07-01T15:01:15.147Z,68.25
2018-07-01T15:06:51.743Z,67.48
2018-07-01T15:09:31.986Z,67.18
2018-07-01T15:14:35.937Z,66.36
2018-07-01T15:17:04.572Z,66.13
2018-07-01T15:19:33.344Z,65.27
2018-07-01T15:43:31.309Z,62.28
2018-07-01T15:45:59.964Z,61.45
2018-07-01T15:48:28.550Z,61.31
2018-07-01T16:15:15.392Z,60.33
2018-07-01T16:22:58.749Z,58.78
2018-07-01T16:25:32.901Z,58.60
2018-07-01T16:28:06.695Z,57.88
2018-07-01T16:30:35.477Z,57.67
2018-07-01T16:47:32.270Z,57.68
2018-07-01T16:50:00.918Z,57.25
2018-07-01T16:52:29.644Z,57.37
2018-07-01T16:54:58.591Z,57.13
2018-07-01T16:57:28.869Z,57.10
2018-07-01T16:59:58.139Z,56.41
2018-07-01T17:02:27.110Z,56.50
2018-07-01T17:04:57.268Z,56.45
2018-07-01T17:07:26.381Z,55.80
2018-07-01T17:09:56.088Z,56.30
2018-07-01T17:12:25.679Z,55.64
2018-07-01T17:14:54.867Z,55.61
2018-07-01T17:27:03.209Z,55.51
2018-07-01T17:29:31.946Z,55.75
2018-07-01T17:32:05.855Z,55.80
2018-07-01T17:43:10.999Z,56.76
2018-07-01T17:45:40.095Z,56.91
2018-07-01T17:48:27.924Z,55.89
2018-07-01T17:52:21.199Z,55.80
2018-07-01T17:54:49.970Z,54.76
2018-07-01T17:58:00.524Z,54.69
2018-07-01T18:05:20.933Z,54.99
2018-07-01T18:07:49.970Z,54.58
2018-07-01T18:10:19.431Z,54.68
2018-07-01T18:12:48.371Z,54.49
2018-07-01T18:15:17.130Z,54.61
2018-07-01T18:17:46.065Z,54.76
2018-07-01T18:20:14.839Z,55.22
2018-07-01T18:23:00.808Z,54.71
2018-07-01T18:25:17.196Z,55.62
2018-07-01T18:27:49.651Z,55.58
2018-07-01T18:30:17.526Z,56.00
2018-07-01T18:32:48.455Z,55.31
2018-07-01T18:35:17.164Z,55.84
2018-07-01T18:37:45.934Z,55.22
2018-07-01T18:40:15.463Z,55.19
2018-07-01T18:57:47.562Z,57.10
2018-07-01T19:00:16.275Z,56.70
2018-07-01T19:02:45.175Z,57.88
2018-07-01T19:05:13.938Z,57.27
2018-07-01T19:07:42.923Z,58.23
2018-07-01T19:10:12.130Z,57.99
2018-07-01T19:12:41.331Z,58.77
2018-07-01T19:15:10.335Z,58.64
2018-07-01T19:17:39.586Z,59.75
2018-07-01T19:20:08.540Z,59.30
2018-07-01T19:22:37.540Z,60.19
2018-07-01T19:25:06.354Z,60.30
2018-07-01T19:27:35.087Z,60.99
2018-07-01T19:30:04.211Z,61.12
2018-07-01T19:32:33.821Z,61.34
2018-07-01T19:35:02.960Z,61.17
2018-07-01T19:37:32.043Z,60.98
2018-07-01T19:40:01.269Z,61.40
2018-07-01T19:42:30.522Z,62.31
2018-07-01T19:44:59.278Z,62.27
2018-07-01T19:47:28.270Z,62.03
2018-07-01T19:49:57.207Z,62.18
2018-07-01T19:52:26.147Z,62.69
2018-07-01T19:54:55.693Z,62.89
2018-07-01T19:57:25.126Z,62.64
2018-07-01T19:59:54.450Z,62.62
2018-07-01T20:02:23.646Z,62.83
2018-07-01T20:04:52.984Z,63.54
2018-07-01T20:07:21.781Z,63.97
2018-07-01T20:09:50.536Z,64.32
2018-07-01T20:12:19.327Z,64.52
2018-07-01T20:14:48.498Z,65.11
2018-07-01T20:17:18.545Z,65.16
2018-07-01T20:19:51.171Z,66.33
2018-07-01T20:22:20.848Z,66.76
2018-07-01T20:24:51.058Z,66.99
2018-07-01T20:27:20.983Z,68.01
2018-07-01T20:29:51.952Z,68.26
2018-07-01T20:32:24.005Z,68.07
2018-07-01T20:34:55.231Z,69.23
2018-07-01T20:37:26.838Z,69.65
2018-07-01T20:39:59.419Z,70.75
2018-07-01T20:42:28.094Z,70.62
2018-07-01T20:44:56.819Z,70.67
2018-07-01T20:47:25.706Z,71.41
2018-07-01T20:49:54.568Z,71.06
2018-07-01T20:52:24.527Z,72.01
2018-07-01T20:54:54.825Z,71.79
2018-07-01T20:57:25.125Z,71.96
2018-07-01T20:59:56.565Z,72.54
2018-07-01T21:02:26.541Z,72.06
2018-07-01T21:04:56.606Z,72.47
2018-07-01T21:07:26.337Z,72.65
2018-07-01T21:09:55.646Z,72.62
2018-07-01T21:12:27.456Z,72.50
2018-07-01T21:14:57.879Z,72.27
2018-07-01T21:17:27.530Z,72.38
2018-07-01T21:19:57.310Z,72.41
2018-07-01T21:22:26.624Z,72.75
2018-07-01T21:24:56.662Z,72.82
2018-07-01T21:27:26.486Z,72.99
2018-07-01T21:29:55.180Z,73.64
2018-07-01T21:32:23.944Z,73.38
2018-07-01T21:34:52.724Z,73.78
2018-07-01T21:37:21.834Z,73.28
2018-07-01T21:39:51.623Z,73.47
2018-07-01T21:42:21.560Z,73.50
2018-07-01T21:44:50.607Z,74.05
2018-07-01T21:47:20.536Z,74.21
2018-07-01T21:49:50.476Z,73.75
2018-07-01T21:52:19.618Z,74.24
2018-07-01T21:54:56.119Z,73.75
2018-07-01T21:57:26.746Z,73.81
2018-07-01T21:59:56.939Z,73.77
2018-07-01T22:02:26.665Z,74.43
2018-07-01T22:04:57.807Z,74.47
2018-07-01T22:07:26.658Z,74.41
2018-07-01T22:09:55.426Z,74.64
2018-07-01T22:12:35.183Z,74.39
2018-07-01T22:15:22.264Z,75.06
2018-07-01T22:17:52.458Z,74.80
2018-07-01T22:20:24.171Z,75.43
2018-07-01T22:22:55.821Z,75.17
2018-07-01T22:25:25.505Z,74.66
2018-07-01T22:27:54.992Z,75.24
2018-07-01T22:30:26.875Z,74.77
2018-07-01T22:32:56.550Z,75.16
2018-07-01T22:35:26.611Z,75.33
2018-07-01T22:37:58.229Z,75.50
2018-07-01T22:40:28.898Z,74.86
2018-07-01T22:43:00.107Z,75.32
2018-07-01T22:45:31.603Z,75.41
2018-07-01T22:48:02.663Z,75.37
2018-07-01T22:50:35.172Z,75.80
2018-07-01T22:53:07.384Z,75.64
2018-07-01T22:55:38.785Z,75.06
2018-07-01T22:58:09.399Z,75.08
2018-07-01T23:00:40.294Z,75.25
2018-07-01T23:03:20.631Z,75.48
2018-07-01T23:05:50.795Z,75.55
2018-07-01T23:08:19.639Z,74.93
2018-07-01T23:10:48.438Z,75.45
2018-07-01T23:13:17.297Z,75.58
2018-07-01T23:15:47.731Z,74.97
2018-07-01T23:18:19.242Z,75.59
2018-07-01T23:20:54.526Z,75.16
2018-07-01T23:23:24.853Z,75.64
2018-07-01T23:25:56.523Z,75.01
2018-07-01T23:28:27.239Z,75.07
2018-07-01T23:31:03.051Z,75.60
2018-07-01T23:33:38.836Z,75.12
2018-07-01T23:36:08.813Z,75.60
2018-07-01T23:38:42.689Z,75.67
2018-07-01T23:41:13.866Z,75.18
2018-07-01T23:43:46.584Z,75.16
2018-07-01T23:46:19.580Z,75.64
2018-07-01T23:48:50.822Z,75.34
2018-07-01T23:51:19.706Z,75.75
2018-07-01T23:53:48.478Z,75.44
2018-07-01T23:56:17.349Z,75.62
2018-07-01T23:58:46.615Z,76.03
